sensor_id;sensor_type;location;lat;lon;timestamp;P1;durP1;ratioP1;P2;durP2;ratioP2
80272;SDS011;69574;45.328;9.598;2023-04-26T00:02:16;7.82;;;4.40;;
80272;SDS011;69574;45.328;9.598;2023-04-26T00:04:42;6.15;;;4.30;;
80272;SDS011;69574;45.328;9.598;2023-04-26T00:07:09;6.65;;;4.40;;
80272;SDS011;69574;45.328;9.598;2023-04-26T00:09:37;6.78;;;4.45;;
80272;SDS011;69574;45.328;9.598;2023-04-26T00:12:06;6.20;;;4.32;;
80272;SDS011;69574;45.328;9.598;2023-04-26T00:14:31;5.80;;;3.60;;
80272;SDS011;69574;45.328;9.598;2023-04-26T00:16:58;4.72;;;3.47;;
80272;SDS011;69574;45.328;9.598;2023-04-26T00:19:23;6.28;;;3.85;;
80272;SDS011;69574;45.328;9.598;2023-04-26T00:21:49;4.97;;;3.30;;
80272;SDS011;69574;45.328;9.598;2023-04-26T00:24:16;5.10;;;3.60;;
80272;SDS011;69574;45.328;9.598;2023-04-26T00:29:07;4.73;;;3.00;;
80272;SDS011;69574;45.328;9.598;2023-04-26T00:31:32;4.20;;;3.00;;
80272;SDS011;69574;45.328;9.598;2023-04-26T00:33:58;4.53;;;2.70;;
80272;SDS011;69574;45.328;9.598;2023-04-26T00:36:23;5.15;;;2.85;;
80272;SDS011;69574;45.328;9.598;2023-04-26T00:38:49;4.80;;;2.88;;
80272;SDS011;69574;45.328;9.598;2023-04-26T00:41:16;5.18;;;3.30;;
80272;SDS011;69574;45.328;9.598;2023-04-26T00:46:07;5.33;;;3.40;;
80272;SDS011;69574;45.328;9.598;2023-04-26T00:48:33;7.38;;;3.60;;
80272;SDS011;69574;45.328;9.598;2023-04-26T00:50:58;6.22;;;3.78;;
80272;SDS011;69574;45.328;9.598;2023-04-26T00:53:24;4.70;;;3.40;;
80272;SDS011;69574;45.328;9.598;2023-04-26T00:55:51;5.03;;;3.47;;
80272;SDS011;69574;45.328;9.598;2023-04-26T00:58:18;5.45;;;3.55;;
80272;SDS011;69574;45.328;9.598;2023-04-26T01:03:08;5.23;;;3.57;;
80272;SDS011;69574;45.328;9.598;2023-04-26T01:05:35;6.13;;;4.45;;
80272;SDS011;69574;45.328;9.598;2023-04-26T01:08:01;6.75;;;4.30;;
80272;SDS011;69574;45.328;9.598;2023-04-26T01:10:28;5.95;;;4.00;;
80272;SDS011;69574;45.328;9.598;2023-04-26T01:12:55;6.22;;;4.15;;
80272;SDS011;69574;45.328;9.598;2023-04-26T01:15:23;5.93;;;4.00;;
80272;SDS011;69574;45.328;9.598;2023-04-26T01:17:49;6.20;;;4.57;;
80272;SDS011;69574;45.328;9.598;2023-04-26T01:20:15;7.90;;;4.38;;
80272;SDS011;69574;45.328;9.598;2023-04-26T01:22:42;6.20;;;4.60;;
80272;SDS011;69574;45.328;9.598;2023-04-26T01:27:33;6.57;;;3.97;;
80272;SDS011;69574;45.328;9.598;2023-04-26T01:29:58;6.75;;;4.90;;
80272;SDS011;69574;45.328;9.598;2023-04-26T01:32:24;6.55;;;4.53;;
80272;SDS011;69574;45.328;9.598;2023-04-26T01:34:50;6.20;;;4.53;;
80272;SDS011;69574;45.328;9.598;2023-04-26T01:37:15;6.35;;;4.47;;
80272;SDS011;69574;45.328;9.598;2023-04-26T01:39:42;5.90;;;4.38;;
80272;SDS011;69574;45.328;9.598;2023-04-26T01:44:33;7.37;;;4.20;;
80272;SDS011;69574;45.328;9.598;2023-04-26T01:46:59;5.97;;;4.10;;
80272;SDS011;69574;45.328;9.598;2023-04-26T01:49:24;5.50;;;3.97;;
80272;SDS011;69574;45.328;9.598;2023-04-26T01:51:50;6.30;;;4.55;;
80272;SDS011;69574;45.328;9.598;2023-04-26T01:54:16;5.78;;;4.57;;
80272;SDS011;69574;45.328;9.598;2023-04-26T01:56:43;7.55;;;4.45;;
80272;SDS011;69574;45.328;9.598;2023-04-26T02:01:34;6.05;;;3.90;;
80272;SDS011;69574;45.328;9.598;2023-04-26T02:03:59;5.45;;;3.90;;
80272;SDS011;69574;45.328;9.598;2023-04-26T02:06:25;6.82;;;4.32;;
80272;SDS011;69574;45.328;9.598;2023-04-26T02:08:51;6.68;;;4.38;;
80272;SDS011;69574;45.328;9.598;2023-04-26T02:11:17;5.45;;;4.05;;
80272;SDS011;69574;45.328;9.598;2023-04-26T02:13:44;6.63;;;4.38;;
80272;SDS011;69574;45.328;9.598;2023-04-26T02:16:10;5.40;;;4.32;;
80272;SDS011;69574;45.328;9.598;2023-04-26T02:18:35;6.30;;;4.20;;
80272;SDS011;69574;45.328;9.598;2023-04-26T02:21:01;5.72;;;4.20;;
80272;SDS011;69574;45.328;9.598;2023-04-26T02:23:27;6.22;;;4.13;;
80272;SDS011;69574;45.328;9.598;2023-04-26T02:25:52;5.82;;;3.55;;
80272;SDS011;69574;45.328;9.598;2023-04-26T02:28:18;5.63;;;3.78;;
80272;SDS011;69574;45.328;9.598;2023-04-26T02:30:45;4.28;;;3.28;;
80272;SDS011;69574;45.328;9.598;2023-04-26T02:33:11;4.63;;;3.33;;
80272;SDS011;69574;45.328;9.598;2023-04-26T02:35:36;6.80;;;4.68;;
80272;SDS011;69574;45.328;9.598;2023-04-26T02:38:02;5.90;;;3.83;;
80272;SDS011;69574;45.328;9.598;2023-04-26T02:40:28;4.43;;;3.40;;
80272;SDS011;69574;45.328;9.598;2023-04-26T02:42:54;4.75;;;3.50;;
80272;SDS011;69574;45.328;9.598;2023-04-26T02:45:20;6.15;;;3.40;;
80272;SDS011;69574;45.328;9.598;2023-04-26T02:47:47;5.35;;;3.60;;
80272;SDS011;69574;45.328;9.598;2023-04-26T02:52:38;5.17;;;3.87;;
80272;SDS011;69574;45.328;9.598;2023-04-26T02:55:04;5.70;;;3.90;;
80272;SDS011;69574;45.328;9.598;2023-04-26T02:57:30;4.50;;;3.38;;
80272;SDS011;69574;45.328;9.598;2023-04-26T02:59:56;4.53;;;3.35;;
80272;SDS011;69574;45.328;9.598;2023-04-26T03:02:22;4.30;;;3.15;;
80272;SDS011;69574;45.328;9.598;2023-04-26T03:04:49;5.55;;;3.90;;
80272;SDS011;69574;45.328;9.598;2023-04-26T03:09:40;6.30;;;4.10;;
80272;SDS011;69574;45.328;9.598;2023-04-26T03:12:05;5.97;;;4.13;;
80272;SDS011;69574;45.328;9.598;2023-04-26T03:14:31;6.32;;;4.43;;
80272;SDS011;69574;45.328;9.598;2023-04-26T03:16:57;4.80;;;3.33;;
80272;SDS011;69574;45.328;9.598;2023-04-26T03:19:23;4.50;;;2.80;;
80272;SDS011;69574;45.328;9.598;2023-04-26T03:21:50;4.22;;;3.00;;
80272;SDS011;69574;45.328;9.598;2023-04-26T03:26:41;4.38;;;3.10;;
80272;SDS011;69574;45.328;9.598;2023-04-26T03:29:07;4.60;;;3.38;;
80272;SDS011;69574;45.328;9.598;2023-04-26T03:31:33;5.85;;;3.90;;
80272;SDS011;69574;45.328;9.598;2023-04-26T03:33:58;5.28;;;3.65;;
80272;SDS011;69574;45.328;9.598;2023-04-26T03:36:24;5.50;;;3.58;;
80272;SDS011;69574;45.328;9.598;2023-04-26T03:38:52;4.90;;;3.67;;
80272;SDS011;69574;45.328;9.598;2023-04-26T03:43:43;4.10;;;2.80;;
80272;SDS011;69574;45.328;9.598;2023-04-26T03:46:09;4.07;;;2.72;;
80272;SDS011;69574;45.328;9.598;2023-04-26T03:48:35;6.03;;;2.70;;
80272;SDS011;69574;45.328;9.598;2023-04-26T03:51:00;4.10;;;3.08;;
80272;SDS011;69574;45.328;9.598;2023-04-26T03:53:26;4.75;;;3.33;;
80272;SDS011;69574;45.328;9.598;2023-04-26T03:55:53;4.07;;;3.03;;
80272;SDS011;69574;45.328;9.598;2023-04-26T04:00:44;6.93;;;2.93;;
80272;SDS011;69574;45.328;9.598;2023-04-26T04:03:10;4.82;;;3.60;;
80272;SDS011;69574;45.328;9.598;2023-04-26T04:05:36;5.65;;;4.07;;
80272;SDS011;69574;45.328;9.598;2023-04-26T04:08:02;5.65;;;2.95;;
80272;SDS011;69574;45.328;9.598;2023-04-26T04:10:28;4.20;;;2.80;;
80272;SDS011;69574;45.328;9.598;2023-04-26T04:12:55;4.25;;;2.90;;
80272;SDS011;69574;45.328;9.598;2023-04-26T04:17:46;3.33;;;1.90;;
80272;SDS011;69574;45.328;9.598;2023-04-26T04:20:12;4.05;;;2.05;;
80272;SDS011;69574;45.328;9.598;2023-04-26T04:22:38;2.92;;;1.98;;
80272;SDS011;69574;45.328;9.598;2023-04-26T04:25:04;3.35;;;2.10;;
80272;SDS011;69574;45.328;9.598;2023-04-26T04:27:30;3.80;;;2.30;;
80272;SDS011;69574;45.328;9.598;2023-04-26T04:29:57;4.15;;;2.30;;
80272;SDS011;69574;45.328;9.598;2023-04-26T04:34:49;3.92;;;2.97;;
80272;SDS011;69574;45.328;9.598;2023-04-26T04:37:16;3.95;;;2.25;;
80272;SDS011;69574;45.328;9.598;2023-04-26T04:39:42;3.42;;;2.20;;
80272;SDS011;69574;45.328;9.598;2023-04-26T04:42:08;4.55;;;2.60;;
80272;SDS011;69574;45.328;9.598;2023-04-26T04:44:34;3.85;;;2.50;;
80272;SDS011;69574;45.328;9.598;2023-04-26T04:47:02;4.32;;;2.90;;
80272;SDS011;69574;45.328;9.598;2023-04-26T04:49:28;4.57;;;2.50;;
80272;SDS011;69574;45.328;9.598;2023-04-26T04:51:54;4.53;;;2.67;;
80272;SDS011;69574;45.328;9.598;2023-04-26T04:54:21;4.68;;;3.13;;
80272;SDS011;69574;45.328;9.598;2023-04-26T04:56:47;4.63;;;3.03;;
80272;SDS011;69574;45.328;9.598;2023-04-26T04:59:13;4.93;;;3.08;;
80272;SDS011;69574;45.328;9.598;2023-04-26T05:01:38;4.60;;;3.10;;
80272;SDS011;69574;45.328;9.598;2023-04-26T05:04:05;4.05;;;2.40;;
80272;SDS011;69574;45.328;9.598;2023-04-26T05:06:31;4.00;;;2.80;;
80272;SDS011;69574;45.328;9.598;2023-04-26T05:08:57;4.45;;;2.80;;
80272;SDS011;69574;45.328;9.598;2023-04-26T05:11:23;5.13;;;3.50;;
80272;SDS011;69574;45.328;9.598;2023-04-26T05:13:49;8.60;;;4.43;;
80272;SDS011;69574;45.328;9.598;2023-04-26T05:16:15;8.55;;;5.65;;
80272;SDS011;69574;45.328;9.598;2023-04-26T05:18:40;6.45;;;4.30;;
80272;SDS011;69574;45.328;9.598;2023-04-26T05:21:08;6.18;;;4.35;;
80272;SDS011;69574;45.328;9.598;2023-04-26T05:23:34;5.65;;;3.90;;
80272;SDS011;69574;45.328;9.598;2023-04-26T05:26:00;5.35;;;4.15;;
80272;SDS011;69574;45.328;9.598;2023-04-26T05:28:26;5.22;;;3.60;;
80272;SDS011;69574;45.328;9.598;2023-04-26T05:30:51;17.75;;;5.32;;
80272;SDS011;69574;45.328;9.598;2023-04-26T05:33:17;5.35;;;4.13;;
80272;SDS011;69574;45.328;9.598;2023-04-26T05:35:43;7.43;;;5.57;;
80272;SDS011;69574;45.328;9.598;2023-04-26T05:38:10;14.23;;;6.47;;
80272;SDS011;69574;45.328;9.598;2023-04-26T05:40:35;16.63;;;6.85;;
80272;SDS011;69574;45.328;9.598;2023-04-26T05:43:01;26.88;;;7.70;;
80272;SDS011;69574;45.328;9.598;2023-04-26T05:45:27;22.48;;;7.97;;
80272;SDS011;69574;45.328;9.598;2023-04-26T05:47:53;16.30;;;7.80;;
80272;SDS011;69574;45.328;9.598;2023-04-26T05:50:18;13.57;;;7.75;;
80272;SDS011;69574;45.328;9.598;2023-04-26T05:52:44;12.07;;;7.75;;
80272;SDS011;69574;45.328;9.598;2023-04-26T05:55:11;10.32;;;7.38;;
80272;SDS011;69574;45.328;9.598;2023-04-26T05:57:37;16.05;;;7.70;;
80272;SDS011;69574;45.328;9.598;2023-04-26T06:00:03;10.63;;;7.35;;
80272;SDS011;69574;45.328;9.598;2023-04-26T06:02:30;12.65;;;7.75;;
80272;SDS011;69574;45.328;9.598;2023-04-26T06:04:55;12.63;;;8.30;;
80272;SDS011;69574;45.328;9.598;2023-04-26T06:07:21;9.32;;;7.40;;
80272;SDS011;69574;45.328;9.598;2023-04-26T06:09:46;8.98;;;7.93;;
80272;SDS011;69574;45.328;9.598;2023-04-26T06:12:14;13.50;;;8.15;;
80272;SDS011;69574;45.328;9.598;2023-04-26T06:17:05;13.38;;;9.75;;
80272;SDS011;69574;45.328;9.598;2023-04-26T06:19:30;14.35;;;11.40;;
80272;SDS011;69574;45.328;9.598;2023-04-26T06:21:56;15.68;;;10.95;;
80272;SDS011;69574;45.328;9.598;2023-04-26T06:24:22;15.50;;;11.98;;
80272;SDS011;69574;45.328;9.598;2023-04-26T06:26:47;12.20;;;9.60;;
80272;SDS011;69574;45.328;9.598;2023-04-26T06:29:14;17.95;;;11.80;;
80272;SDS011;69574;45.328;9.598;2023-04-26T06:31:40;15.60;;;12.63;;
80272;SDS011;69574;45.328;9.598;2023-04-26T06:34:06;15.77;;;12.27;;
80272;SDS011;69574;45.328;9.598;2023-04-26T06:36:31;14.68;;;11.35;;
80272;SDS011;69574;45.328;9.598;2023-04-26T06:38:57;17.60;;;11.75;;
80272;SDS011;69574;45.328;9.598;2023-04-26T06:41:23;12.40;;;10.88;;
80272;SDS011;69574;45.328;9.598;2023-04-26T06:43:48;19.20;;;12.52;;
80272;SDS011;69574;45.328;9.598;2023-04-26T06:46:15;14.80;;;12.13;;
80272;SDS011;69574;45.328;9.598;2023-04-26T06:48:41;16.02;;;12.07;;
80272;SDS011;69574;45.328;9.598;2023-04-26T06:51:07;13.73;;;10.85;;
80272;SDS011;69574;45.328;9.598;2023-04-26T06:53:33;15.85;;;10.65;;
80272;SDS011;69574;45.328;9.598;2023-04-26T06:55:59;13.48;;;10.23;;
80272;SDS011;69574;45.328;9.598;2023-04-26T06:58:24;13.48;;;9.82;;
80272;SDS011;69574;45.328;9.598;2023-04-26T07:00:50;14.73;;;10.75;;
80272;SDS011;69574;45.328;9.598;2023-04-26T07:03:17;13.25;;;10.35;;
80272;SDS011;69574;45.328;9.598;2023-04-26T07:05:43;15.00;;;10.30;;
80272;SDS011;69574;45.328;9.598;2023-04-26T07:08:08;12.88;;;9.52;;
80272;SDS011;69574;45.328;9.598;2023-04-26T07:10:34;13.15;;;10.40;;
80272;SDS011;69574;45.328;9.598;2023-04-26T07:13:00;14.75;;;10.77;;
80272;SDS011;69574;45.328;9.598;2023-04-26T07:15:26;13.65;;;10.82;;
80272;SDS011;69574;45.328;9.598;2023-04-26T07:17:52;14.90;;;10.63;;
80272;SDS011;69574;45.328;9.598;2023-04-26T07:20:19;16.17;;;11.35;;
80272;SDS011;69574;45.328;9.598;2023-04-26T07:22:47;14.45;;;10.30;;
80272;SDS011;69574;45.328;9.598;2023-04-26T07:25:12;15.13;;;11.13;;
80272;SDS011;69574;45.328;9.598;2023-04-26T07:27:38;13.65;;;10.55;;
80272;SDS011;69574;45.328;9.598;2023-04-26T07:30:04;16.63;;;11.40;;
80272;SDS011;69574;45.328;9.598;2023-04-26T07:32:30;12.93;;;10.15;;
80272;SDS011;69574;45.328;9.598;2023-04-26T07:34:56;13.50;;;10.55;;
80272;SDS011;69574;45.328;9.598;2023-04-26T07:37:23;13.95;;;10.68;;
80272;SDS011;69574;45.328;9.598;2023-04-26T07:39:49;20.10;;;12.10;;
80272;SDS011;69574;45.328;9.598;2023-04-26T07:42:14;14.27;;;10.90;;
80272;SDS011;69574;45.328;9.598;2023-04-26T07:44:40;14.50;;;11.10;;
80272;SDS011;69574;45.328;9.598;2023-04-26T07:47:10;16.95;;;11.68;;
80272;SDS011;69574;45.328;9.598;2023-04-26T07:49:36;15.45;;;10.85;;
80272;SDS011;69574;45.328;9.598;2023-04-26T07:52:01;15.38;;;11.55;;
80272;SDS011;69574;45.328;9.598;2023-04-26T07:54:28;12.98;;;10.02;;
80272;SDS011;69574;45.328;9.598;2023-04-26T07:56:55;15.52;;;10.98;;
80272;SDS011;69574;45.328;9.598;2023-04-26T07:59:20;14.80;;;11.15;;
80272;SDS011;69574;45.328;9.598;2023-04-26T08:01:46;14.73;;;11.10;;
80272;SDS011;69574;45.328;9.598;2023-04-26T08:04:12;18.70;;;11.82;;
80272;SDS011;69574;45.328;9.598;2023-04-26T08:06:37;15.75;;;11.60;;
80272;SDS011;69574;45.328;9.598;2023-04-26T08:09:03;16.55;;;11.80;;
80272;SDS011;69574;45.328;9.598;2023-04-26T08:11:31;17.70;;;11.43;;
80272;SDS011;69574;45.328;9.598;2023-04-26T08:13:56;16.02;;;11.77;;
80272;SDS011;69574;45.328;9.598;2023-04-26T08:16:22;15.23;;;12.25;;
80272;SDS011;69574;45.328;9.598;2023-04-26T08:18:48;16.02;;;12.32;;
80272;SDS011;69574;45.328;9.598;2023-04-26T08:21:13;15.05;;;11.27;;
80272;SDS011;69574;45.328;9.598;2023-04-26T08:23:39;15.77;;;11.70;;
80272;SDS011;69574;45.328;9.598;2023-04-26T08:26:05;15.40;;;11.25;;
80272;SDS011;69574;45.328;9.598;2023-04-26T08:28:32;13.18;;;10.82;;
80272;SDS011;69574;45.328;9.598;2023-04-26T08:30:57;13.25;;;10.45;;
80272;SDS011;69574;45.328;9.598;2023-04-26T08:33:23;13.70;;;10.00;;
80272;SDS011;69574;45.328;9.598;2023-04-26T08:35:49;15.95;;;10.88;;
80272;SDS011;69574;45.328;9.598;2023-04-26T08:38:15;15.95;;;11.63;;
80272;SDS011;69574;45.328;9.598;2023-04-26T08:40:41;14.27;;;11.48;;
80272;SDS011;69574;45.328;9.598;2023-04-26T08:43:08;13.70;;;10.73;;
80272;SDS011;69574;45.328;9.598;2023-04-26T08:45:36;13.00;;;10.52;;
80272;SDS011;69574;45.328;9.598;2023-04-26T08:48:03;12.43;;;10.25;;
80272;SDS011;69574;45.328;9.598;2023-04-26T08:50:33;13.02;;;10.23;;
80272;SDS011;69574;45.328;9.598;2023-04-26T08:52:59;15.82;;;10.98;;
80272;SDS011;69574;45.328;9.598;2023-04-26T08:55:24;15.57;;;10.80;;
80272;SDS011;69574;45.328;9.598;2023-04-26T08:57:50;13.13;;;10.02;;
80272;SDS011;69574;45.328;9.598;2023-04-26T09:00:16;12.35;;;9.73;;
80272;SDS011;69574;45.328;9.598;2023-04-26T09:02:46;11.65;;;8.77;;
80272;SDS011;69574;45.328;9.598;2023-04-26T09:05:12;10.55;;;8.35;;
80272;SDS011;69574;45.328;9.598;2023-04-26T09:07:42;9.75;;;7.80;;
80272;SDS011;69574;45.328;9.598;2023-04-26T09:10:09;9.30;;;7.22;;
80272;SDS011;69574;45.328;9.598;2023-04-26T09:12:35;8.85;;;6.85;;
80272;SDS011;69574;45.328;9.598;2023-04-26T09:15:01;10.02;;;7.72;;
80272;SDS011;69574;45.328;9.598;2023-04-26T09:17:26;11.20;;;7.72;;
80272;SDS011;69574;45.328;9.598;2023-04-26T09:19:54;11.52;;;7.70;;
80272;SDS011;69574;45.328;9.598;2023-04-26T09:22:32;10.80;;;8.00;;
80272;SDS011;69574;45.328;9.598;2023-04-26T09:24:58;11.95;;;8.30;;
80272;SDS011;69574;45.328;9.598;2023-04-26T09:27:31;10.52;;;7.55;;
80272;SDS011;69574;45.328;9.598;2023-04-26T09:29:57;9.52;;;7.45;;
80272;SDS011;69574;45.328;9.598;2023-04-26T09:32:24;9.18;;;7.10;;
80272;SDS011;69574;45.328;9.598;2023-04-26T09:34:50;11.13;;;7.82;;
80272;SDS011;69574;45.328;9.598;2023-04-26T09:37:17;9.27;;;7.75;;
80272;SDS011;69574;45.328;9.598;2023-04-26T09:39:43;10.30;;;8.13;;
80272;SDS011;69574;45.328;9.598;2023-04-26T09:42:09;10.15;;;8.23;;
80272;SDS011;69574;45.328;9.598;2023-04-26T09:44:38;9.80;;;7.78;;
80272;SDS011;69574;45.328;9.598;2023-04-26T09:47:04;11.70;;;9.05;;
80272;SDS011;69574;45.328;9.598;2023-04-26T09:49:30;11.98;;;9.68;;
80272;SDS011;69574;45.328;9.598;2023-04-26T09:52:03;13.93;;;11.18;;
80272;SDS011;69574;45.328;9.598;2023-04-26T09:54:44;12.90;;;10.18;;
80272;SDS011;69574;45.328;9.598;2023-04-26T09:57:10;10.93;;;8.45;;
80272;SDS011;69574;45.328;9.598;2023-04-26T09:59:42;13.45;;;10.45;;
80272;SDS011;69574;45.328;9.598;2023-04-26T10:02:09;13.55;;;10.90;;
80272;SDS011;69574;45.328;9.598;2023-04-26T10:04:37;11.20;;;9.00;;
80272;SDS011;69574;45.328;9.598;2023-04-26T10:07:03;10.57;;;7.95;;
80272;SDS011;69574;45.328;9.598;2023-04-26T10:09:29;11.73;;;8.50;;
80272;SDS011;69574;45.328;9.598;2023-04-26T10:11:57;11.15;;;8.18;;
80272;SDS011;69574;45.328;9.598;2023-04-26T10:14:24;9.60;;;7.65;;
80272;SDS011;69574;45.328;9.598;2023-04-26T10:16:49;9.27;;;7.32;;
80272;SDS011;69574;45.328;9.598;2023-04-26T10:19:16;8.95;;;7.05;;
80272;SDS011;69574;45.328;9.598;2023-04-26T10:21:42;11.05;;;8.13;;
80272;SDS011;69574;45.328;9.598;2023-04-26T10:24:08;9.00;;;6.40;;
80272;SDS011;69574;45.328;9.598;2023-04-26T10:26:47;8.68;;;7.15;;
80272;SDS011;69574;45.328;9.598;2023-04-26T10:29:18;8.50;;;6.40;;
80272;SDS011;69574;45.328;9.598;2023-04-26T10:34:29;7.72;;;5.82;;
80272;SDS011;69574;45.328;9.598;2023-04-26T10:37:07;9.32;;;6.70;;
80272;SDS011;69574;45.328;9.598;2023-04-26T10:39:33;7.38;;;6.32;;
80272;SDS011;69574;45.328;9.598;2023-04-26T10:44:48;8.60;;;6.53;;
80272;SDS011;69574;45.328;9.598;2023-04-26T10:47:25;8.05;;;6.57;;
80272;SDS011;69574;45.328;9.598;2023-04-26T10:49:51;9.02;;;6.97;;
80272;SDS011;69574;45.328;9.598;2023-04-26T10:52:18;7.80;;;6.60;;
80272;SDS011;69574;45.328;9.598;2023-04-26T10:54:51;8.98;;;6.70;;
80272;SDS011;69574;45.328;9.598;2023-04-26T10:57:18;8.50;;;6.90;;
80272;SDS011;69574;45.328;9.598;2023-04-26T11:02:47;7.72;;;5.85;;
80272;SDS011;69574;45.328;9.598;2023-04-26T11:05:31;7.38;;;4.72;;
80272;SDS011;69574;45.328;9.598;2023-04-26T11:08:02;7.00;;;5.40;;
80272;SDS011;69574;45.328;9.598;2023-04-26T11:10:28;7.25;;;4.97;;
80272;SDS011;69574;45.328;9.598;2023-04-26T11:13:00;8.05;;;5.15;;
80272;SDS011;69574;45.328;9.598;2023-04-26T11:15:28;7.50;;;4.90;;
80272;SDS011;69574;45.328;9.598;2023-04-26T11:17:55;6.90;;;4.60;;
80272;SDS011;69574;45.328;9.598;2023-04-26T11:20:20;6.07;;;4.68;;
80272;SDS011;69574;45.328;9.598;2023-04-26T11:22:46;8.05;;;5.55;;
80272;SDS011;69574;45.328;9.598;2023-04-26T11:25:12;7.35;;;5.32;;
80272;SDS011;69574;45.328;9.598;2023-04-26T11:27:38;6.57;;;4.50;;
80272;SDS011;69574;45.328;9.598;2023-04-26T11:30:04;6.15;;;4.53;;
80272;SDS011;69574;45.328;9.598;2023-04-26T11:32:30;7.40;;;4.93;;
80272;SDS011;69574;45.328;9.598;2023-04-26T11:34:58;7.03;;;5.00;;
80272;SDS011;69574;45.328;9.598;2023-04-26T11:37:24;13.98;;;4.47;;
80272;SDS011;69574;45.328;9.598;2023-04-26T11:39:50;8.98;;;4.18;;
80272;SDS011;69574;45.328;9.598;2023-04-26T11:42:15;5.20;;;3.55;;
80272;SDS011;69574;45.328;9.598;2023-04-26T11:44:41;5.72;;;3.58;;
80272;SDS011;69574;45.328;9.598;2023-04-26T11:47:07;5.30;;;3.35;;
80272;SDS011;69574;45.328;9.598;2023-04-26T11:49:34;5.22;;;3.50;;
80272;SDS011;69574;45.328;9.598;2023-04-26T11:52:02;4.82;;;3.33;;
80272;SDS011;69574;45.328;9.598;2023-04-26T11:54:29;6.18;;;3.58;;
80272;SDS011;69574;45.328;9.598;2023-04-26T11:56:55;5.88;;;3.83;;
80272;SDS011;69574;45.328;9.598;2023-04-26T11:59:24;4.85;;;3.53;;
80272;SDS011;69574;45.328;9.598;2023-04-26T12:01:50;7.00;;;3.33;;
80272;SDS011;69574;45.328;9.598;2023-04-26T12:04:18;6.50;;;3.42;;
80272;SDS011;69574;45.328;9.598;2023-04-26T12:06:45;6.05;;;3.35;;
80272;SDS011;69574;45.328;9.598;2023-04-26T12:11:37;5.25;;;3.63;;
80272;SDS011;69574;45.328;9.598;2023-04-26T12:14:03;5.72;;;4.10;;
80272;SDS011;69574;45.328;9.598;2023-04-26T12:16:30;5.07;;;3.80;;
80272;SDS011;69574;45.328;9.598;2023-04-26T12:18:55;6.70;;;3.53;;
80272;SDS011;69574;45.328;9.598;2023-04-26T12:21:21;6.20;;;3.35;;
80272;SDS011;69574;45.328;9.598;2023-04-26T12:23:48;5.93;;;3.40;;
80272;SDS011;69574;45.328;9.598;2023-04-26T12:26:14;5.80;;;3.30;;
80272;SDS011;69574;45.328;9.598;2023-04-26T12:28:41;4.65;;;2.80;;
80272;SDS011;69574;45.328;9.598;2023-04-26T12:31:07;4.70;;;2.45;;
80272;SDS011;69574;45.328;9.598;2023-04-26T12:33:32;6.03;;;2.78;;
80272;SDS011;69574;45.328;9.598;2023-04-26T12:36:04;3.95;;;2.40;;
80272;SDS011;69574;45.328;9.598;2023-04-26T12:38:30;3.90;;;2.53;;
80272;SDS011;69574;45.328;9.598;2023-04-26T12:40:56;4.28;;;2.17;;
80272;SDS011;69574;45.328;9.598;2023-04-26T12:43:22;4.28;;;2.00;;
80272;SDS011;69574;45.328;9.598;2023-04-26T12:45:51;3.58;;;1.90;;
80272;SDS011;69574;45.328;9.598;2023-04-26T12:48:17;3.33;;;1.50;;
80272;SDS011;69574;45.328;9.598;2023-04-26T12:50:43;4.85;;;1.60;;
80272;SDS011;69574;45.328;9.598;2023-04-26T12:53:10;3.53;;;1.30;;
80272;SDS011;69574;45.328;9.598;2023-04-26T12:55:35;2.97;;;1.40;;
80272;SDS011;69574;45.328;9.598;2023-04-26T12:58:01;2.17;;;1.30;;
80272;SDS011;69574;45.328;9.598;2023-04-26T13:00:27;7.80;;;1.70;;
80272;SDS011;69574;45.328;9.598;2023-04-26T13:02:56;3.53;;;1.30;;
80272;SDS011;69574;45.328;9.598;2023-04-26T13:05:21;4.70;;;1.35;;
80272;SDS011;69574;45.328;9.598;2023-04-26T13:07:48;7.68;;;1.95;;
80272;SDS011;69574;45.328;9.598;2023-04-26T13:12:41;3.92;;;1.15;;
80272;SDS011;69574;45.328;9.598;2023-04-26T13:15:06;4.03;;;1.50;;
80272;SDS011;69574;45.328;9.598;2023-04-26T13:19:59;2.60;;;1.20;;
80272;SDS011;69574;45.328;9.598;2023-04-26T13:22:25;5.18;;;1.60;;
80272;SDS011;69574;45.328;9.598;2023-04-26T13:24:51;4.15;;;1.65;;
80272;SDS011;69574;45.328;9.598;2023-04-26T13:27:17;6.15;;;1.70;;
80272;SDS011;69574;45.328;9.598;2023-04-26T13:29:42;4.00;;;2.08;;
80272;SDS011;69574;45.328;9.598;2023-04-26T13:32:08;5.43;;;1.95;;
80272;SDS011;69574;45.328;9.598;2023-04-26T13:37:01;4.70;;;2.30;;
80272;SDS011;69574;45.328;9.598;2023-04-26T13:41:57;4.45;;;2.20;;
80272;SDS011;69574;45.328;9.598;2023-04-26T13:44:23;4.43;;;2.17;;
80272;SDS011;69574;45.328;9.598;2023-04-26T13:46:49;3.63;;;2.05;;
80272;SDS011;69574;45.328;9.598;2023-04-26T13:49:14;4.22;;;2.00;;
80272;SDS011;69574;45.328;9.598;2023-04-26T13:51:41;3.60;;;1.92;;
80272;SDS011;69574;45.328;9.598;2023-04-26T13:54:08;4.35;;;2.00;;
80272;SDS011;69574;45.328;9.598;2023-04-26T13:56:35;3.05;;;1.60;;
80272;SDS011;69574;45.328;9.598;2023-04-26T13:59:01;3.58;;;2.13;;
80272;SDS011;69574;45.328;9.598;2023-04-26T14:01:29;3.20;;;1.90;;
80272;SDS011;69574;45.328;9.598;2023-04-26T14:03:55;3.92;;;1.77;;
80272;SDS011;69574;45.328;9.598;2023-04-26T14:06:21;4.82;;;2.00;;
80272;SDS011;69574;45.328;9.598;2023-04-26T14:08:46;3.25;;;1.70;;
80272;SDS011;69574;45.328;9.598;2023-04-26T14:11:13;3.72;;;1.92;;
80272;SDS011;69574;45.328;9.598;2023-04-26T14:13:39;5.18;;;2.47;;
80272;SDS011;69574;45.328;9.598;2023-04-26T14:16:05;7.55;;;2.40;;
80272;SDS011;69574;45.328;9.598;2023-04-26T14:18:30;3.97;;;2.40;;
80272;SDS011;69574;45.328;9.598;2023-04-26T14:20:56;4.68;;;2.20;;
80272;SDS011;69574;45.328;9.598;2023-04-26T14:23:22;4.32;;;2.08;;
80272;SDS011;69574;45.328;9.598;2023-04-26T14:25:50;4.10;;;1.90;;
80272;SDS011;69574;45.328;9.598;2023-04-26T14:28:17;4.13;;;2.10;;
80272;SDS011;69574;45.328;9.598;2023-04-26T14:30:43;4.57;;;2.15;;
80272;SDS011;69574;45.328;9.598;2023-04-26T14:33:09;3.30;;;1.90;;
80272;SDS011;69574;45.328;9.598;2023-04-26T14:35:34;4.30;;;2.20;;
80272;SDS011;69574;45.328;9.598;2023-04-26T14:38:00;4.32;;;2.35;;
80272;SDS011;69574;45.328;9.598;2023-04-26T14:40:26;4.53;;;2.40;;
80272;SDS011;69574;45.328;9.598;2023-04-26T14:42:51;4.25;;;2.70;;
80272;SDS011;69574;45.328;9.598;2023-04-26T14:45:18;4.53;;;2.53;;
80272;SDS011;69574;45.328;9.598;2023-04-26T14:47:44;3.92;;;2.58;;
80272;SDS011;69574;45.328;9.598;2023-04-26T14:50:10;5.85;;;2.65;;
80272;SDS011;69574;45.328;9.598;2023-04-26T14:52:38;4.68;;;2.40;;
80272;SDS011;69574;45.328;9.598;2023-04-26T14:55:04;6.18;;;2.97;;
80272;SDS011;69574;45.328;9.598;2023-04-26T14:57:29;4.97;;;3.00;;
80272;SDS011;69574;45.328;9.598;2023-04-26T14:59:56;4.40;;;2.80;;
80272;SDS011;69574;45.328;9.598;2023-04-26T15:02:31;4.78;;;3.28;;
80272;SDS011;69574;45.328;9.598;2023-04-26T15:04:57;7.60;;;3.40;;
80272;SDS011;69574;45.328;9.598;2023-04-26T15:07:23;5.38;;;3.13;;
80272;SDS011;69574;45.328;9.598;2023-04-26T15:09:48;5.60;;;3.28;;
80272;SDS011;69574;45.328;9.598;2023-04-26T15:12:14;4.72;;;3.13;;
80272;SDS011;69574;45.328;9.598;2023-04-26T15:14:40;4.72;;;3.10;;
80272;SDS011;69574;45.328;9.598;2023-04-26T15:17:05;4.68;;;2.72;;
80272;SDS011;69574;45.328;9.598;2023-04-26T15:19:33;4.10;;;2.67;;
80272;SDS011;69574;45.328;9.598;2023-04-26T15:21:59;4.40;;;2.80;;
80272;SDS011;69574;45.328;9.598;2023-04-26T15:24:25;5.18;;;3.00;;
80272;SDS011;69574;45.328;9.598;2023-04-26T15:26:51;6.45;;;3.53;;
80272;SDS011;69574;45.328;9.598;2023-04-26T15:29:16;9.15;;;3.10;;
80272;SDS011;69574;45.328;9.598;2023-04-26T15:31:42;7.18;;;3.30;;